createdAt,value
2017-11-10T00:02:11.415Z,78.80
2017-11-10T00:04:49.661Z,79.00
2017-11-10T00:07:30.919Z,79.00
2017-11-10T00:10:01.060Z,79.60
2017-11-10T00:12:31.141Z,79.70
2017-11-10T00:15:00.534Z,81.60
2017-11-10T00:17:40.477Z,83.10
2017-11-10T00:20:10.373Z,83.50
2017-11-10T00:22:39.556Z,83.80
2017-11-10T00:25:10.450Z,85.20
2017-11-10T00:27:39.695Z,85.20
2017-11-10T00:30:10.306Z,85.70
2017-11-10T00:32:41.890Z,86.20
2017-11-10T00:35:11.438Z,86.20
2017-11-10T00:37:40.995Z,86.80
2017-11-10T00:40:11.447Z,86.20
2017-11-10T00:42:40.587Z,86.20
2017-11-10T00:45:09.789Z,85.40
2017-11-10T00:47:42.508Z,85.70
2017-11-10T00:50:12.305Z,85.80
2017-11-10T00:52:42.341Z,87.30
2017-11-10T00:55:11.875Z,87.30
2017-11-10T00:57:41.484Z,88.40
2017-11-10T01:00:10.724Z,88.70
2017-11-10T01:02:40.332Z,89.60
2017-11-10T01:05:09.600Z,90.00
2017-11-10T01:07:38.839Z,90.10
2017-11-10T01:10:08.954Z,90.80
2017-11-10T01:12:39.778Z,91.40
2017-11-10T01:15:09.643Z,91.40
2017-11-10T01:17:39.009Z,91.50
2017-11-10T01:20:09.073Z,92.00
2017-11-10T01:22:38.267Z,91.90
2017-11-10T01:25:07.647Z,92.00
2017-11-10T01:27:39.198Z,92.10
2017-11-10T01:30:10.246Z,91.90
2017-11-10T01:32:41.076Z,91.90
2017-11-10T01:35:10.432Z,92.00
2017-11-10T01:37:39.651Z,91.70
2017-11-10T01:40:09.107Z,91.70
2017-11-10T01:42:38.368Z,91.80
2017-11-10T01:45:08.826Z,91.30
2017-11-10T01:47:38.104Z,91.30
2017-11-10T01:50:08.386Z,90.60
2017-11-10T01:52:37.613Z,90.50
2017-11-10T01:55:07.373Z,90.90
2017-11-10T01:57:36.714Z,91.40
2017-11-10T02:00:06.074Z,91.90
2017-11-10T02:02:36.275Z,92.40
2017-11-10T02:05:06.017Z,92.80
2017-11-10T02:07:37.728Z,92.90
2017-11-10T02:10:08.833Z,93.50
2017-11-10T02:12:40.317Z,93.60
2017-11-10T02:15:10.409Z,93.90
2017-11-10T02:17:39.912Z,93.70
2017-11-10T02:20:10.103Z,94.00
2017-11-10T02:22:39.419Z,94.00
2017-11-10T02:25:09.165Z,94.20
2017-11-10T02:27:38.869Z,94.30
2017-11-10T02:30:10.264Z,94.30
2017-11-10T02:32:39.882Z,94.40
2017-11-10T02:35:09.124Z,94.20
2017-11-10T02:37:40.975Z,94.20
2017-11-10T02:40:10.612Z,94.30
2017-11-10T02:42:42.357Z,93.80
2017-11-10T02:45:13.640Z,93.80
2017-11-10T02:47:45.512Z,93.90
2017-11-10T02:50:38.465Z,93.40
2017-11-10T02:53:11.012Z,93.40
2017-11-10T02:55:40.256Z,93.20
2017-11-10T02:58:09.963Z,93.10
2017-11-10T03:00:39.117Z,93.30
2017-11-10T03:03:08.209Z,93.20
2017-11-10T03:05:38.481Z,93.20
2017-11-10T03:08:07.947Z,93.10
2017-11-10T03:10:37.703Z,93.20
2017-11-10T03:13:07.116Z,93.00
2017-11-10T03:15:36.418Z,92.90
2017-11-10T03:18:05.864Z,92.80
2017-11-10T03:20:36.222Z,92.70
2017-11-10T03:23:07.843Z,92.70
2017-11-10T03:25:42.842Z,92.40
2017-11-10T03:28:18.578Z,92.30
2017-11-10T03:30:49.117Z,92.50
2017-11-10T03:33:18.539Z,92.50
2017-11-10T03:35:50.731Z,92.60
2017-11-10T03:38:19.926Z,92.60
2017-11-10T03:40:50.211Z,92.40
2017-11-10T03:43:20.521Z,92.40
2017-11-10T03:45:49.849Z,92.40
2017-11-10T03:48:19.260Z,92.30
2017-11-10T03:50:48.838Z,92.20
2017-11-10T03:53:18.019Z,92.20
2017-11-10T03:55:47.273Z,92.30
2017-11-10T03:58:17.643Z,91.90
2017-11-10T04:00:46.757Z,91.90
2017-11-10T04:03:16.907Z,91.80
2017-11-10T04:05:46.407Z,91.80
2017-11-10T04:08:16.323Z,91.80
2017-11-10T04:10:46.308Z,92.20
2017-11-10T04:13:15.576Z,92.20
2017-11-10T04:15:45.589Z,92.70
2017-11-10T04:18:14.866Z,93.10
2017-11-10T04:20:44.969Z,93.70
2017-11-10T04:23:14.797Z,93.70
2017-11-10T04:25:45.051Z,94.00
2017-11-10T04:28:14.433Z,93.90
2017-11-10T04:33:44.491Z,93.30
2017-11-10T04:36:13.891Z,93.30
2017-11-10T04:38:43.270Z,93.20
2017-11-10T04:41:13.885Z,92.80
2017-11-10T04:43:43.578Z,92.80
2017-11-10T04:46:12.939Z,92.80
2017-11-10T04:48:42.115Z,92.70
2017-11-10T04:51:11.582Z,92.50
2017-11-10T04:53:41.135Z,92.50
2017-11-10T04:56:10.333Z,92.40
2017-11-10T04:58:39.521Z,92.50
2017-11-10T05:01:09.650Z,92.40
2017-11-10T05:03:39.205Z,92.40
2017-11-10T05:06:08.376Z,92.40
2017-11-10T05:08:37.605Z,92.00
2017-11-10T05:11:07.265Z,92.10
2017-11-10T05:13:36.605Z,92.00
2017-11-10T05:16:05.927Z,91.90
2017-11-10T05:18:35.926Z,91.70
2017-11-10T05:21:05.249Z,91.70
2017-11-10T05:23:35.729Z,91.30
2017-11-10T05:26:05.107Z,91.30
2017-11-10T05:28:34.389Z,91.20
2017-11-10T05:31:03.824Z,90.70
2017-11-10T05:33:33.570Z,90.70
2017-11-10T05:36:02.945Z,90.70
2017-11-10T05:38:32.403Z,90.50
2017-11-10T05:41:01.994Z,90.50
2017-11-10T05:43:31.197Z,90.30
2017-11-10T05:46:00.570Z,90.10
2017-11-10T05:48:29.740Z,89.80
2017-11-10T05:50:59.084Z,90.00
2017-11-10T05:53:28.412Z,89.80
2017-11-10T05:55:57.947Z,89.90
2017-11-10T05:58:27.238Z,89.70
2017-11-10T06:00:56.903Z,89.20
2017-11-10T06:03:26.264Z,89.40
2017-11-10T06:05:56.054Z,89.80
2017-11-10T06:08:25.489Z,89.30
2017-11-10T06:10:57.756Z,89.30
2017-11-10T06:13:27.055Z,89.30
2017-11-10T06:15:56.349Z,89.10
2017-11-10T06:18:25.686Z,88.90
2017-11-10T06:20:55.071Z,89.10
2017-11-10T06:23:24.442Z,88.90
2017-11-10T06:25:53.720Z,88.90
2017-11-10T06:28:23.786Z,88.90
2017-11-10T06:30:54.534Z,89.00
2017-11-10T06:33:24.288Z,88.60
2017-11-10T06:35:54.367Z,88.00
2017-11-10T06:38:24.070Z,88.00
2017-11-10T06:40:53.317Z,87.90
2017-11-10T06:43:22.599Z,88.10
2017-11-10T06:45:51.972Z,88.20
2017-11-10T06:48:21.828Z,88.20
2017-11-10T06:50:53.066Z,89.00
2017-11-10T06:53:22.277Z,89.00
2017-11-10T06:55:52.326Z,90.20
2017-11-10T06:58:21.508Z,90.20
2017-11-10T07:00:50.829Z,90.40
2017-11-10T07:03:20.290Z,90.60
2017-11-10T07:05:50.283Z,90.60
2017-11-10T07:08:19.661Z,90.60
2017-11-10T07:10:49.313Z,90.80
2017-11-10T07:13:18.720Z,90.90
2017-11-10T07:15:48.936Z,90.80
2017-11-10T07:18:19.069Z,90.50
2017-11-10T07:20:58.199Z,90.30
2017-11-10T07:23:27.700Z,90.30
2017-11-10T07:25:57.797Z,90.20
2017-11-10T07:28:27.020Z,90.20
2017-11-10T07:30:56.376Z,90.00
2017-11-10T07:33:56.099Z,89.30
2017-11-10T07:36:26.055Z,89.80
2017-11-10T07:38:55.751Z,90.00
2017-11-10T07:41:25.652Z,89.80
2017-11-10T07:43:56.008Z,90.00
2017-11-10T07:46:31.250Z,90.20
2017-11-10T07:49:00.729Z,90.20
2017-11-10T07:51:29.975Z,89.80
2017-11-10T07:53:59.537Z,90.10
2017-11-10T07:56:30.320Z,90.40
2017-11-10T07:58:59.635Z,90.40
2017-11-10T08:01:29.126Z,90.50
2017-11-10T08:03:58.502Z,90.60
2017-11-10T08:06:28.119Z,90.70
2017-11-10T08:08:57.552Z,90.70
2017-11-10T08:11:26.992Z,91.20
2017-11-10T08:13:57.857Z,91.20
2017-11-10T08:16:27.194Z,91.20
2017-11-10T08:18:56.649Z,91.30
2017-11-10T08:21:26.415Z,91.00
2017-11-10T08:23:55.855Z,91.00
2017-11-10T08:26:26.074Z,90.80
2017-11-10T08:28:56.298Z,90.50
2017-11-10T08:31:26.568Z,90.60
2017-11-10T08:33:59.343Z,90.60
2017-11-10T08:36:28.740Z,90.50
2017-11-10T08:38:58.554Z,90.40
2017-11-10T08:45:01.061Z,90.50
2017-11-10T08:47:30.552Z,90.50
2017-11-10T08:50:00.071Z,91.00
2017-11-10T08:52:43.531Z,90.50
2017-11-10T08:55:22.494Z,90.60
2017-11-10T08:57:52.917Z,90.80
2017-11-10T09:00:22.408Z,90.80
2017-11-10T09:02:52.108Z,90.80
2017-11-10T09:05:21.660Z,90.80
2017-11-10T09:07:51.451Z,90.40
2017-11-10T09:10:21.653Z,89.80
2017-11-10T09:12:51.292Z,89.70
2017-11-10T09:15:20.915Z,89.40
2017-11-10T09:17:50.862Z,89.80
2017-11-10T09:20:20.943Z,89.40
2017-11-10T09:22:50.382Z,89.10
2017-11-10T09:25:20.142Z,89.10
2017-11-10T09:27:50.708Z,88.60
2017-11-10T09:30:20.282Z,88.60
2017-11-10T09:32:50.599Z,87.10
2017-11-10T09:35:21.087Z,87.30
2017-11-10T09:37:50.540Z,86.60
2017-11-10T09:40:20.740Z,85.90
2017-11-10T09:42:50.284Z,85.90
2017-11-10T09:45:19.718Z,85.40
2017-11-10T09:47:53.366Z,85.20
2017-11-10T09:50:26.850Z,85.20
2017-11-10T09:52:57.378Z,85.40
2017-11-10T09:55:37.067Z,87.20
2017-11-10T09:58:07.557Z,87.20
2017-11-10T10:00:37.995Z,86.40
2017-11-10T10:03:11.703Z,87.10
2017-11-10T10:05:41.966Z,86.10
2017-11-10T10:08:11.519Z,86.10
2017-11-10T10:10:43.361Z,86.70
2017-11-10T10:13:13.137Z,86.70
2017-11-10T10:15:43.343Z,86.30
2017-11-10T10:18:13.639Z,84.60
2017-11-10T10:20:43.041Z,84.50
2017-11-10T10:23:13.293Z,83.90
2017-11-10T10:25:42.919Z,83.90
2017-11-10T10:28:13.646Z,83.80
2017-11-10T10:30:43.155Z,83.50
2017-11-10T10:36:45.204Z,83.30
2017-11-10T10:39:15.412Z,83.90
2017-11-10T10:41:55.437Z,83.90
2017-11-10T10:44:49.921Z,83.70
2017-11-10T10:47:29.866Z,84.10
2017-11-10T10:50:02.563Z,85.20
2017-11-10T10:52:33.140Z,83.80
2017-11-10T10:55:02.687Z,84.30
2017-11-10T10:57:33.060Z,84.20
2017-11-10T11:00:02.666Z,84.10
2017-11-10T11:02:32.078Z,83.30
2017-11-10T11:05:01.858Z,83.80
2017-11-10T11:07:31.271Z,83.50
2017-11-10T11:10:01.452Z,83.80
2017-11-10T11:12:30.764Z,83.80
2017-11-10T11:15:00.082Z,83.30
2017-11-10T11:17:30.230Z,82.60
2017-11-10T11:20:00.036Z,82.60
2017-11-10T11:22:30.298Z,83.10
2017-11-10T11:24:59.829Z,83.10
2017-11-10T11:27:29.221Z,82.10
2017-11-10T11:29:58.587Z,82.30
2017-11-10T11:32:28.182Z,82.70
2017-11-10T11:34:58.698Z,83.30
2017-11-10T11:37:28.860Z,83.70
2017-11-10T11:39:58.131Z,83.70
2017-11-10T11:42:28.557Z,83.50
2017-11-10T11:45:13.228Z,84.60
2017-11-10T11:47:45.283Z,84.60
2017-11-10T11:50:24.704Z,85.80
2017-11-10T11:53:03.646Z,87.50
2017-11-10T11:55:34.390Z,91.00
2017-11-10T11:58:03.619Z,91.00
2017-11-10T12:00:33.496Z,91.80
2017-11-10T12:03:02.903Z,92.50
2017-11-10T12:05:32.686Z,92.90
2017-11-10T12:08:02.385Z,92.90
2017-11-10T12:10:31.751Z,93.20
2017-11-10T12:13:01.171Z,93.60
2017-11-10T12:15:30.570Z,93.30
2017-11-10T12:18:02.527Z,93.50
2017-11-10T12:20:34.781Z,93.50
2017-11-10T12:23:04.494Z,93.90
2017-11-10T12:25:34.031Z,94.30
2017-11-10T12:28:03.556Z,94.80
2017-11-10T12:30:33.958Z,95.60
2017-11-10T12:33:10.802Z,96.10
2017-11-10T12:35:41.412Z,96.10
2017-11-10T12:38:10.811Z,96.40
2017-11-10T12:40:40.934Z,96.40
2017-11-10T12:43:18.458Z,96.40
2017-11-10T12:45:47.990Z,96.50
2017-11-10T12:48:17.870Z,96.50
2017-11-10T12:50:47.569Z,96.50
2017-11-10T12:53:31.498Z,96.00
2017-11-10T12:56:21.087Z,96.50
2017-11-10T13:02:23.000Z,95.80
2017-11-10T13:04:53.008Z,95.80
2017-11-10T13:07:22.869Z,95.30
2017-11-10T13:09:53.370Z,94.60
2017-11-10T13:12:22.991Z,94.80
2017-11-10T13:14:52.664Z,94.40
2017-11-10T13:17:22.834Z,94.30
2017-11-10T13:19:53.516Z,94.30
2017-11-10T13:22:23.708Z,93.80
2017-11-10T13:24:53.197Z,93.80
2017-11-10T13:27:24.999Z,94.00
2017-11-10T13:29:55.099Z,94.30
2017-11-10T13:32:29.978Z,93.40
2017-11-10T13:35:03.536Z,93.40
2017-11-10T13:37:32.953Z,93.70
2017-11-10T13:40:02.678Z,93.40
2017-11-10T13:42:41.531Z,93.40
2017-11-10T13:45:17.275Z,93.20
2017-11-10T13:47:47.596Z,92.70
2017-11-10T13:50:18.039Z,92.10
2017-11-10T13:52:55.440Z,92.10
2017-11-10T13:55:27.311Z,91.80
2017-11-10T13:57:57.388Z,92.10
2017-11-10T14:00:27.311Z,91.80
2017-11-10T14:02:57.832Z,91.70
2017-11-10T14:05:27.537Z,91.70
2017-11-10T14:07:57.058Z,91.60
2017-11-10T14:10:35.073Z,91.70
2017-11-10T14:13:04.982Z,91.60
2017-11-10T14:15:34.397Z,91.30
2017-11-10T14:18:03.976Z,91.50
2017-11-10T14:20:33.446Z,91.30
2017-11-10T14:23:03.857Z,91.60
2017-11-10T14:25:34.065Z,91.30
2017-11-10T14:28:03.798Z,91.30
2017-11-10T14:30:33.256Z,90.70
2017-11-10T14:33:02.572Z,90.20
2017-11-10T14:35:34.757Z,90.50
2017-11-10T14:38:05.173Z,90.30
2017-11-10T14:40:35.789Z,90.20
2017-11-10T14:43:05.420Z,90.20
2017-11-10T14:45:34.967Z,90.20
2017-11-10T14:48:05.017Z,89.80
2017-11-10T14:50:34.482Z,90.10
2017-11-10T14:53:04.721Z,90.10
2017-11-10T14:55:34.159Z,90.00
2017-11-10T14:58:10.076Z,90.50
2017-11-10T15:00:49.516Z,90.30
2017-11-10T15:03:19.423Z,90.30
2017-11-10T15:05:49.585Z,90.10
2017-11-10T15:08:19.027Z,90.10
2017-11-10T15:10:49.881Z,90.00
2017-11-10T15:13:19.481Z,90.00
2017-11-10T15:15:49.870Z,89.30
2017-11-10T15:18:19.414Z,89.30
2017-11-10T15:20:49.486Z,88.40
2017-11-10T15:23:34.126Z,88.40
2017-11-10T15:26:03.791Z,87.20
2017-11-10T15:28:36.755Z,85.50
2017-11-10T15:31:07.076Z,84.80
2017-11-10T15:33:38.084Z,85.10
2017-11-10T15:36:13.904Z,85.10
2017-11-10T15:38:43.607Z,84.00
2017-11-10T15:41:13.526Z,83.20
2017-11-10T15:43:43.448Z,81.80
2017-11-10T15:46:13.053Z,82.60
2017-11-10T15:48:42.818Z,84.00
2017-11-10T15:51:12.323Z,82.80
2017-11-10T15:53:41.894Z,82.40
2017-11-10T15:56:11.679Z,84.10
2017-11-10T15:58:41.058Z,82.80
2017-11-10T16:01:10.693Z,83.50
2017-11-10T16:03:40.531Z,83.40
2017-11-10T16:06:10.326Z,82.20
2017-11-10T16:08:39.738Z,79.60
2017-11-10T16:11:20.631Z,77.60
2017-11-10T16:13:58.563Z,76.90
2017-11-10T16:16:28.162Z,74.70
2017-11-10T16:18:57.839Z,72.80
2017-11-10T16:21:27.824Z,71.50
2017-11-10T16:23:57.517Z,71.00
2017-11-10T16:26:27.139Z,70.20
2017-11-10T16:28:57.347Z,69.90
2017-11-10T16:31:28.801Z,69.70
2017-11-10T16:33:58.188Z,69.80
2017-11-10T16:36:27.654Z,71.00
2017-11-10T16:38:57.352Z,72.00
2017-11-10T16:41:26.586Z,72.00
2017-11-10T16:43:56.497Z,71.90
2017-11-10T16:46:25.840Z,72.10
2017-11-10T16:48:55.968Z,71.00
2017-11-10T16:51:25.498Z,71.00
2017-11-10T16:53:56.025Z,71.70
2017-11-10T16:56:29.528Z,71.30
2017-11-10T16:58:59.397Z,72.30
2017-11-10T17:01:30.047Z,71.80
2017-11-10T17:03:59.879Z,71.90
2017-11-10T17:06:30.712Z,72.30
2017-11-10T17:09:03.090Z,72.20
2017-11-10T17:11:34.597Z,71.40
2017-11-10T17:14:05.342Z,72.00
2017-11-10T17:16:37.040Z,73.00
2017-11-10T17:19:07.792Z,72.60
2017-11-10T17:21:39.820Z,73.30
2017-11-10T17:24:14.749Z,73.50
2017-11-10T17:26:51.286Z,74.00
2017-11-10T17:29:21.555Z,73.90
2017-11-10T17:31:52.473Z,75.20
2017-11-10T17:34:24.435Z,75.20
2017-11-10T17:36:54.475Z,75.20
2017-11-10T17:39:25.782Z,74.50
2017-11-10T17:41:59.672Z,74.80
2017-11-10T17:44:30.284Z,74.80
2017-11-10T17:47:00.815Z,75.10
2017-11-10T17:49:31.111Z,75.10
2017-11-10T17:52:03.319Z,76.10
2017-11-10T17:54:34.923Z,75.90
2017-11-10T17:57:05.584Z,75.50
2017-11-10T17:59:35.671Z,75.50
2017-11-10T18:02:13.211Z,74.90
2017-11-10T18:04:56.363Z,76.00
2017-11-10T18:11:03.137Z,75.20
2017-11-10T18:13:33.391Z,75.40
2017-11-10T18:16:04.320Z,76.10
2017-11-10T18:18:39.551Z,74.80
2017-11-10T18:21:11.152Z,75.80
2017-11-10T18:23:51.029Z,75.60
2017-11-10T18:26:26.967Z,75.60
2017-11-10T18:29:03.205Z,75.80
2017-11-10T18:31:35.298Z,75.80
2017-11-10T18:34:07.097Z,76.50
2017-11-10T18:36:42.073Z,75.90
2017-11-10T18:39:14.121Z,75.80
2017-11-10T18:41:48.261Z,76.40
2017-11-10T18:44:23.315Z,76.40
2017-11-10T18:46:58.089Z,76.40
2017-11-10T18:49:32.882Z,76.20
2017-11-10T18:52:04.823Z,76.10
2017-11-10T18:54:38.890Z,76.00
2017-11-10T18:57:13.002Z,76.00
2017-11-10T18:59:43.407Z,76.80
2017-11-10T19:02:15.000Z,76.90
2017-11-10T19:04:45.161Z,76.90
2017-11-10T19:07:14.826Z,76.80
2017-11-10T19:09:45.068Z,76.90
2017-11-10T19:12:15.907Z,76.80
2017-11-10T19:14:46.510Z,76.60
2017-11-10T19:17:22.487Z,76.80
2017-11-10T19:19:53.003Z,77.20
2017-11-10T19:22:27.756Z,77.20
2017-11-10T19:25:02.131Z,76.60
2017-11-10T19:27:39.128Z,77.10
2017-11-10T19:30:34.948Z,76.30
2017-11-10T19:33:13.057Z,76.30
2017-11-10T19:35:42.748Z,76.30
2017-11-10T19:38:12.163Z,76.30
2017-11-10T19:40:45.977Z,75.50
2017-11-10T19:43:17.006Z,75.90
2017-11-10T19:45:48.683Z,75.90
2017-11-10T19:48:21.744Z,76.30
2017-11-10T19:50:53.715Z,76.30
2017-11-10T19:53:23.762Z,76.70
2017-11-10T19:55:59.352Z,76.80
2017-11-10T19:58:32.616Z,77.50
2017-11-10T20:01:15.335Z,75.80
2017-11-10T20:03:53.531Z,76.10
2017-11-10T20:06:28.907Z,76.00
2017-11-10T20:09:08.273Z,76.20
2017-11-10T20:11:38.688Z,76.50
2017-11-10T20:14:08.093Z,76.50
2017-11-10T20:16:37.702Z,76.20
2017-11-10T20:19:07.156Z,76.00
2017-11-10T20:21:37.406Z,75.70
2017-11-10T20:24:10.266Z,75.70
2017-11-10T20:26:47.902Z,75.10
2017-11-10T20:32:54.901Z,75.70
2017-11-10T20:35:25.387Z,76.00
2017-11-10T20:37:55.045Z,75.80
2017-11-10T20:40:24.713Z,75.90
2017-11-10T20:43:00.321Z,76.30
2017-11-10T20:45:30.551Z,75.40
2017-11-10T20:48:00.336Z,75.40
2017-11-10T20:50:29.801Z,75.60
2017-11-10T20:53:01.349Z,76.30
2017-11-10T20:55:32.977Z,76.30
2017-11-10T20:58:04.009Z,76.40
2017-11-10T21:00:35.004Z,76.40
2017-11-10T21:03:05.574Z,75.80
2017-11-10T21:05:35.766Z,76.10
2017-11-10T21:08:09.274Z,76.30
2017-11-10T21:10:40.129Z,77.80
2017-11-10T21:13:10.690Z,76.90
2017-11-10T21:15:41.137Z,76.40
2017-11-10T21:18:13.374Z,77.40
2017-11-10T21:20:44.169Z,77.40
2017-11-10T21:23:15.627Z,78.20
2017-11-10T21:25:45.720Z,77.40
2017-11-10T21:28:25.762Z,77.70
2017-11-10T21:31:05.032Z,77.90
2017-11-10T21:33:42.019Z,77.90
2017-11-10T21:36:17.862Z,77.90
2017-11-10T21:38:54.353Z,78.00
2017-11-10T21:41:38.629Z,78.10
2017-11-10T21:44:08.704Z,78.60
2017-11-10T21:46:48.294Z,77.90
2017-11-10T21:49:36.682Z,78.30
2017-11-10T21:52:24.035Z,78.70
2017-11-10T21:55:03.956Z,78.60
2017-11-10T21:57:49.296Z,78.70
2017-11-10T22:00:20.431Z,78.70
2017-11-10T22:02:52.872Z,78.40
2017-11-10T22:05:23.356Z,78.40
2017-11-10T22:07:52.799Z,78.80
2017-11-10T22:10:24.602Z,78.70
2017-11-10T22:13:09.077Z,78.70
2017-11-10T22:15:39.869Z,78.70
2017-11-10T22:18:19.760Z,78.10
2017-11-10T22:20:57.525Z,78.70
2017-11-10T22:23:34.915Z,78.70
2017-11-10T22:26:13.525Z,78.40
2017-11-10T22:28:47.532Z,79.10
2017-11-10T22:31:25.517Z,79.20
2017-11-10T22:34:03.055Z,79.10
2017-11-10T22:36:36.091Z,79.20
2017-11-10T22:39:07.655Z,79.60
2017-11-10T22:41:37.783Z,79.60
2017-11-10T22:44:07.243Z,79.60
2017-11-10T22:46:38.296Z,80.20
2017-11-10T22:49:07.888Z,79.40
2017-11-10T22:51:38.471Z,79.70
2017-11-10T22:54:08.287Z,79.70
2017-11-10T22:56:38.146Z,79.00
2017-11-10T22:59:07.613Z,79.50
2017-11-10T23:01:38.113Z,79.30
2017-11-10T23:04:08.770Z,79.30
2017-11-10T23:06:38.561Z,79.10
2017-11-10T23:09:07.905Z,79.70
2017-11-10T23:11:38.656Z,80.00
2017-11-10T23:14:08.507Z,80.30
2017-11-10T23:16:39.235Z,80.90
2017-11-10T23:19:08.505Z,80.70
2017-11-10T23:21:38.024Z,80.50
2017-11-10T23:24:07.922Z,80.30
2017-11-10T23:26:37.435Z,80.50
2017-11-10T23:29:07.044Z,80.40
2017-11-10T23:31:36.448Z,80.70
2017-11-10T23:34:11.375Z,80.50
2017-11-10T23:36:43.503Z,81.10
2017-11-10T23:39:21.432Z,81.00
2017-11-10T23:41:52.441Z,80.80
2017-11-10T23:44:23.495Z,80.60
2017-11-10T23:46:59.976Z,80.70
2017-11-10T23:49:31.361Z,81.10
2017-11-10T23:52:00.885Z,81.10
2017-11-10T23:54:31.233Z,81.10
2017-11-10T23:57:01.060Z,81.10
2017-11-10T23:59:31.486Z,81.10
